Time;durP1;ratioP1;P1;durP2;ratioP2;P2;SDS_P1;SDS_P2;PMS_P1;PMS_P2;Temp;Humidity;BMP_temperature;BMP_pressure;BME280_temperature;BME280_humidity;BME280_pressure;Samples;Min_cycle;Max_cycle;Signal;HPM_P1;HPM_P2
2022/10/16 00:01:20;;;;;;;8.43;1.85;;;13.80;99.90;;;;;;5051885;28;20043;-83
2022/10/16 00:03:46;;;;;;;10.90;1.95;;;13.80;99.90;;;;;;5071322;28;20032;-83
2022/10/16 00:06:13;;;;;;;7.60;1.98;;;13.80;99.90;;;;;;5054398;28;20032;-83
2022/10/16 00:08:39;;;;;;;10.48;3.03;;;13.70;99.90;;;;;;5054189;28;20033;-83
2022/10/16 00:11:11;;;;;;;6.95;1.80;;;13.80;99.90;;;;;;5070420;28;20032;-83
2022/10/16 00:13:39;;;;;;;10.88;2.22;;;13.80;99.90;;;;;;5068642;28;20047;-83
2022/10/16 00:16:06;;;;;;;10.27;2.85;;;13.70;99.90;;;;;;5070924;28;20126;-83
2022/10/16 00:18:32;;;;;;;9.05;2.83;;;13.70;99.90;;;;;;5070819;28;20048;-83
2022/10/16 00:21:06;;;;;;;5.65;2.00;;;13.80;99.90;;;;;;5069979;28;20037;-83
2022/10/16 00:23:33;;;;;;;8.93;2.35;;;13.70;99.90;;;;;;5053961;28;20067;-83
2022/10/16 00:26:02;;;;;;;12.15;2.38;;;13.60;99.90;;;;;;5070579;28;20035;-83
2022/10/16 00:28:28;;;;;;;7.95;2.67;;;13.60;99.90;;;;;;5070971;28;20032;-83
2022/10/16 00:30:54;;;;;;;8.13;1.70;;;13.70;99.90;;;;;;5050766;28;20037;-83
2022/10/16 00:33:21;;;;;;;9.23;2.10;;;13.60;99.90;;;;;;5052982;28;20043;-83
2022/10/16 00:35:46;;;;;;;8.02;2.10;;;13.60;99.90;;;;;;5070765;28;20549;-83
2022/10/16 00:38:12;;;;;;;9.20;2.10;;;13.60;99.90;;;;;;5070293;28;20119;-83
2022/10/16 00:40:38;;;;;;;9.65;3.17;;;13.60;99.90;;;;;;5070225;28;20082;-83
2022/10/16 00:43:13;;;;;;;6.93;2.30;;;13.60;99.90;;;;;;5069969;28;20036;-83
2022/10/16 00:45:38;;;;;;;6.97;2.10;;;13.60;99.90;;;;;;5068331;28;20028;-83
2022/10/16 00:48:04;;;;;;;7.82;2.30;;;13.60;99.90;;;;;;5053485;28;20036;-83
2022/10/16 00:50:33;;;;;;;7.57;2.22;;;13.60;99.90;;;;;;5053479;28;20037;-83
2022/10/16 00:53:00;;;;;;;9.40;3.08;;;13.50;99.90;;;;;;5053461;28;20123;-83
2022/10/16 00:55:27;;;;;;;7.85;2.28;;;13.50;99.90;;;;;;5053387;28;20036;-83
2022/10/16 00:57:54;;;;;;;9.18;3.10;;;13.50;99.90;;;;;;5070019;28;20051;-83
2022/10/16 01:00:25;;;;;;;5.28;1.98;;;13.50;99.90;;;;;;5069913;28;20383;-83
2022/10/16 01:03:02;;;;;;;7.80;2.20;;;13.50;99.90;;;;;;5069798;28;20040;-83
2022/10/16 01:05:41;;;;;;;9.15;2.65;;;13.40;99.90;;;;;;5070340;28;20436;-83
2022/10/16 01:08:17;;;;;;;9.50;3.38;;;13.40;99.90;;;;;;5069004;28;20060;-83
2022/10/16 01:11:01;;;;;;;6.95;2.10;;;13.50;99.90;;;;;;5068430;28;20428;-83
2022/10/16 01:13:29;;;;;;;5.82;2.45;;;13.50;99.90;;;;;;5052484;28;20082;-83
2022/10/16 01:16:06;;;;;;;7.63;2.22;;;13.40;99.90;;;;;;5067262;28;20043;-83
2022/10/16 01:18:54;;;;;;;6.47;2.05;;;13.40;99.90;;;;;;5069907;28;20557;-83
2022/10/16 01:21:27;;;;;;;5.28;1.80;;;13.40;99.90;;;;;;5067381;28;20047;-83
2022/10/16 01:24:31;;;;;;;7.95;2.10;;;13.30;99.90;;;;;;5070163;28;20112;-83
2022/10/16 01:27:09;;;;;;;9.20;3.30;;;13.40;99.90;;;;;;5050804;28;20028;-83
2022/10/16 01:29:37;;;;;;;6.18;1.95;;;13.40;99.90;;;;;;5050054;28;20036;-83
2022/10/16 01:32:13;;;;;;;9.10;3.17;;;13.40;99.90;;;;;;5069678;28;20033;-83
2022/10/16 01:34:50;;;;;;;6.93;2.15;;;13.50;99.90;;;;;;5051406;28;20376;-83
2022/10/16 01:37:32;;;;;;;7.75;2.50;;;13.40;99.90;;;;;;5067484;28;20095;-83
2022/10/16 01:40:01;;;;;;;7.73;2.30;;;13.40;99.90;;;;;;5067631;28;20127;-83
2022/10/16 01:42:34;;;;;;;5.10;1.83;;;13.40;99.90;;;;;;5069641;28;20556;-83
2022/10/16 01:45:00;;;;;;;10.27;3.08;;;13.40;99.90;;;;;;5068988;28;20036;-83
2022/10/16 01:47:29;;;;;;;11.45;2.90;;;13.40;99.90;;;;;;5073694;28;20036;-83
2022/10/16 01:49:57;;;;;;;6.97;2.30;;;13.50;99.90;;;;;;5054265;28;20050;-83
2022/10/16 01:52:26;;;;;;;7.20;2.15;;;13.40;99.90;;;;;;5056727;28;20043;-83
2022/10/16 01:54:55;;;;;;;6.50;2.28;;;13.40;99.90;;;;;;5073473;28;20111;-83
2022/10/16 01:57:24;;;;;;;8.45;3.00;;;13.40;99.90;;;;;;5056769;28;20452;-83
2022/10/16 01:59:54;;;;;;;6.30;2.38;;;13.40;99.90;;;;;;5056608;28;20127;-83
2022/10/16 02:02:22;;;;;;;9.70;2.25;;;13.50;99.90;;;;;;5056522;28;20556;-83
2022/10/16 02:04:57;;;;;;;5.30;2.00;;;13.40;99.90;;;;;;5073380;28;20043;-83
2022/10/16 02:07:23;;;;;;;8.98;2.60;;;13.40;99.90;;;;;;5055495;28;20118;-83
2022/10/16 02:09:49;;;;;;;7.28;1.80;;;13.50;99.90;;;;;;5073040;28;20137;-83
2022/10/16 02:12:28;;;;;;;6.35;1.92;;;13.50;99.90;;;;;;5070315;28;20405;-83
2022/10/16 02:14:54;;;;;;;6.80;2.13;;;13.50;99.90;;;;;;5056444;28;20078;-83
2022/10/16 02:17:20;;;;;;;7.97;2.95;;;13.50;99.90;;;;;;5073301;28;20040;-83
2022/10/16 02:19:49;;;;;;;7.47;2.42;;;13.50;99.90;;;;;;5056326;28;20067;-83
2022/10/16 02:22:33;;;;;;;7.00;2.15;;;13.50;99.90;;;;;;5069912;28;20072;-83
2022/10/16 02:25:08;;;;;;;7.88;2.10;;;13.50;99.90;;;;;;5073311;28;20037;-83
2022/10/16 02:28:17;;;;;;;6.72;2.30;;;13.50;99.90;;;;;;5072817;28;20032;-82
2022/10/16 02:30:58;;;;;;;6.85;1.98;;;13.60;99.90;;;;;;5070931;28;20053;-82
2022/10/16 02:33:26;;;;;;;5.78;1.73;;;13.50;99.90;;;;;;5071324;28;20044;-83
2022/10/16 02:35:54;;;;;;;9.20;2.60;;;13.50;99.90;;;;;;5073027;28;20044;-83
2022/10/16 02:38:20;;;;;;;8.07;2.58;;;13.60;99.90;;;;;;5055776;28;20590;-83
2022/10/16 02:40:46;;;;;;;7.90;2.13;;;13.60;99.90;;;;;;5055823;28;20503;-83
2022/10/16 02:43:12;;;;;;;5.55;2.00;;;13.60;99.90;;;;;;5055944;28;20051;-83
2022/10/16 02:45:38;;;;;;;5.85;1.80;;;13.60;99.90;;;;;;5055960;28;20043;-83
2022/10/16 02:48:03;;;;;;;5.93;1.85;;;13.60;99.90;;;;;;5072795;28;20037;-83
2022/10/16 02:50:29;;;;;;;8.32;3.00;;;13.60;99.90;;;;;;5055667;28;20036;-83
2022/10/16 02:52:54;;;;;;;8.88;2.95;;;13.70;99.90;;;;;;5072089;28;20048;-83
2022/10/16 02:55:20;;;;;;;4.95;1.95;;;13.70;99.90;;;;;;5072706;28;20040;-83
2022/10/16 02:57:45;;;;;;;8.88;2.95;;;13.70;99.90;;;;;;5071677;28;20036;-83
2022/10/16 03:00:14;;;;;;;8.00;2.88;;;13.70;99.90;;;;;;5072095;28;20082;-83
2022/10/16 03:02:40;;;;;;;7.13;2.17;;;13.80;99.90;;;;;;5072047;28;20429;-83
2022/10/16 03:05:06;;;;;;;8.07;1.98;;;13.70;99.90;;;;;;5055775;28;20043;-83
2022/10/16 03:07:32;;;;;;;6.78;2.00;;;13.70;99.90;;;;;;5055529;28;20047;-83
2022/10/16 03:10:00;;;;;;;11.77;3.15;;;13.70;99.90;;;;;;5072047;28;20032;-83
2022/10/16 03:12:27;;;;;;;5.32;1.90;;;13.70;99.90;;;;;;5055137;28;20041;-83
2022/10/16 03:14:52;;;;;;;6.70;1.80;;;13.80;99.90;;;;;;5072278;28;20379;-83
2022/10/16 03:17:18;;;;;;;7.45;3.00;;;13.80;99.90;;;;;;5055648;28;20516;-83
2022/10/16 03:19:44;;;;;;;9.80;2.80;;;13.80;99.90;;;;;;5071721;28;20557;-83
2022/10/16 03:22:10;;;;;;;6.20;1.98;;;13.90;99.90;;;;;;5054892;28;20045;-83
2022/10/16 03:24:35;;;;;;;7.10;3.08;;;13.80;99.90;;;;;;5072216;28;20074;-83
2022/10/16 03:27:01;;;;;;;7.05;2.78;;;13.80;99.90;;;;;;5071988;28;20406;-83
2022/10/16 03:29:27;;;;;;;8.77;2.40;;;13.90;99.90;;;;;;5055419;28;20560;-83
2022/10/16 03:31:53;;;;;;;5.28;2.00;;;13.90;99.90;;;;;;5071304;28;20043;-83
2022/10/16 03:34:18;;;;;;;7.60;2.33;;;13.80;99.90;;;;;;5071917;28;20040;-83
2022/10/16 03:36:44;;;;;;;9.18;3.53;;;13.80;99.90;;;;;;5071729;28;20035;-83
2022/10/16 03:39:09;;;;;;;7.15;2.45;;;13.80;99.90;;;;;;5071881;28;20833;-83
2022/10/16 03:41:35;;;;;;;6.18;1.88;;;13.80;99.90;;;;;;5051725;28;20438;-83
2022/10/16 03:44:00;;;;;;;7.95;3.20;;;13.80;99.90;;;;;;5054859;28;20109;-83
2022/10/16 03:46:26;;;;;;;9.18;2.72;;;13.90;99.90;;;;;;5054767;28;20032;-83
2022/10/16 03:48:54;;;;;;;6.35;2.17;;;13.90;99.90;;;;;;5054659;28;20429;-83
2022/10/16 03:51:20;;;;;;;8.15;3.17;;;13.80;99.90;;;;;;5070852;28;20036;-83
2022/10/16 03:53:45;;;;;;;8.88;3.40;;;13.80;99.90;;;;;;5054580;28;20141;-83
2022/10/16 03:56:11;;;;;;;7.80;2.42;;;13.80;99.90;;;;;;5054486;28;20414;-83
2022/10/16 03:58:36;;;;;;;8.65;2.92;;;13.80;99.90;;;;;;5071400;28;20080;-83
2022/10/16 04:01:02;;;;;;;7.05;2.28;;;13.80;99.90;;;;;;5070755;28;20481;-83
2022/10/16 04:03:28;;;;;;;6.65;2.70;;;13.80;99.90;;;;;;5054747;28;20048;-83
2022/10/16 04:05:53;;;;;;;6.15;2.53;;;13.70;99.90;;;;;;5070899;28;20410;-83
2022/10/16 04:08:19;;;;;;;9.38;3.90;;;13.70;99.90;;;;;;5054122;28;20037;-83
2022/10/16 04:10:45;;;;;;;8.13;3.58;;;13.70;99.90;;;;;;5054287;28;20060;-83
2022/10/16 04:13:11;;;;;;;10.95;3.03;;;13.80;99.90;;;;;;5070737;28;20497;-83
2022/10/16 04:15:36;;;;;;;9.20;2.53;;;13.70;99.90;;;;;;5070862;28;20044;-83
2022/10/16 04:18:02;;;;;;;7.15;2.78;;;13.70;99.90;;;;;;5071085;28;20039;-83
2022/10/16 04:20:27;;;;;;;7.38;2.67;;;13.70;99.90;;;;;;5070446;28;20033;-83
2022/10/16 04:22:53;;;;;;;7.05;3.33;;;13.60;99.90;;;;;;5070659;28;20032;-83
2022/10/16 04:25:18;;;;;;;6.68;2.42;;;13.70;99.90;;;;;;5054264;28;20397;-83
2022/10/16 04:27:44;;;;;;;6.78;2.38;;;13.60;99.90;;;;;;5070845;28;20422;-83
2022/10/16 04:30:10;;;;;;;7.68;3.80;;;13.60;99.90;;;;;;5070559;28;20447;-83
2022/10/16 04:32:35;;;;;;;7.65;3.30;;;13.70;99.90;;;;;;5050761;28;20452;-83
2022/10/16 04:35:01;;;;;;;8.68;3.60;;;13.60;99.90;;;;;;5070671;28;20127;-83
2022/10/16 04:37:27;;;;;;;8.35;4.13;;;13.70;99.90;;;;;;5070550;28;20517;-83
2022/10/16 04:39:53;;;;;;;7.38;2.65;;;13.70;99.90;;;;;;5070249;28;20060;-83
2022/10/16 04:42:19;;;;;;;8.15;2.90;;;13.70;99.90;;;;;;5070239;28;20473;-83
2022/10/16 04:44:45;;;;;;;8.07;2.67;;;13.70;99.90;;;;;;5070677;28;20105;-83
2022/10/16 04:47:11;;;;;;;7.57;2.65;;;13.60;99.90;;;;;;5053694;28;20410;-83
2022/10/16 04:49:36;;;;;;;9.60;3.80;;;13.60;99.90;;;;;;5050952;28;20036;-83
2022/10/16 04:52:02;;;;;;;9.63;3.97;;;13.60;99.90;;;;;;5070147;28;20551;-83
2022/10/16 04:54:27;;;;;;;7.40;2.60;;;13.70;99.90;;;;;;5070135;28;20486;-83
2022/10/16 04:56:53;;;;;;;8.65;2.92;;;13.60;99.90;;;;;;5053776;28;20040;-83
2022/10/16 04:59:19;;;;;;;8.50;4.00;;;13.60;99.90;;;;;;5070486;28;20059;-83
2022/10/16 05:01:45;;;;;;;5.78;2.42;;;13.60;99.90;;;;;;5053601;28;20048;-83
2022/10/16 05:04:11;;;;;;;7.15;2.60;;;13.60;99.90;;;;;;5070473;28;20123;-83
2022/10/16 05:06:38;;;;;;;7.07;2.92;;;13.60;99.90;;;;;;5053880;28;20042;-83
2022/10/16 05:09:07;;;;;;;7.40;3.80;;;13.50;99.90;;;;;;5053740;28;20047;-83
2022/10/16 05:11:34;;;;;;;8.00;2.78;;;13.60;99.90;;;;;;5053777;28;20068;-83
2022/10/16 05:14:00;;;;;;;7.80;2.80;;;13.60;99.90;;;;;;5070551;28;20383;-83
2022/10/16 05:16:26;;;;;;;8.70;3.88;;;13.50;99.90;;;;;;5053687;28;20051;-83
2022/10/16 05:18:52;;;;;;;8.68;2.65;;;13.60;99.90;;;;;;5070372;28;20131;-83
2022/10/16 05:21:18;;;;;;;9.23;2.70;;;13.50;99.90;;;;;;5069499;28;20127;-83
2022/10/16 05:23:43;;;;;;;8.82;4.00;;;13.50;99.90;;;;;;5053683;28;20140;-83
2022/10/16 05:26:09;;;;;;;7.65;3.08;;;13.50;99.90;;;;;;5053889;28;20457;-83
2022/10/16 05:28:35;;;;;;;6.68;3.10;;;13.50;99.90;;;;;;5053619;28;20039;-83
2022/10/16 05:31:05;;;;;;;7.82;3.60;;;13.40;99.90;;;;;;5069225;28;20040;-83
2022/10/16 05:33:30;;;;;;;8.68;3.50;;;13.50;99.90;;;;;;5053742;28;20616;-83
2022/10/16 05:35:56;;;;;;;8.20;3.67;;;13.50;99.90;;;;;;5067171;28;20505;-83
2022/10/16 05:38:21;;;;;;;8.95;2.72;;;13.40;99.90;;;;;;5052106;28;20049;-83
2022/10/16 05:40:53;;;;;;;8.63;2.47;;;13.40;99.90;;;;;;5070326;28;20044;-83
2022/10/16 05:43:19;;;;;;;5.95;2.30;;;13.40;99.90;;;;;;5069070;28;20402;-83
2022/10/16 05:45:57;;;;;;;6.97;2.30;;;13.30;99.90;;;;;;5052419;28;20094;-83
2022/10/16 05:48:23;;;;;;;8.18;2.35;;;13.30;99.90;;;;;;5069342;28;20043;-83
2022/10/16 05:50:59;;;;;;;7.13;3.17;;;13.30;99.90;;;;;;5052328;28;20040;-83
2022/10/16 05:53:26;;;;;;;7.88;2.40;;;13.30;99.90;;;;;;5052410;28;20036;-83
2022/10/16 05:55:52;;;;;;;6.65;2.40;;;13.30;99.90;;;;;;5069056;28;20040;-83
2022/10/16 05:58:18;;;;;;;7.05;2.63;;;13.30;99.90;;;;;;5069217;28;20056;-83
2022/10/16 06:00:44;;;;;;;6.53;2.25;;;13.30;99.90;;;;;;5052338;28;20526;-83
2022/10/16 06:03:09;;;;;;;9.40;3.50;;;13.30;99.90;;;;;;5068935;28;20040;-83
2022/10/16 06:05:35;;;;;;;5.93;2.38;;;13.30;99.90;;;;;;5052319;28;20183;-83
2022/10/16 06:08:00;;;;;;;8.65;2.30;;;13.30;99.90;;;;;;5069534;28;20123;-83
2022/10/16 06:10:26;;;;;;;6.55;2.13;;;13.20;99.90;;;;;;5052485;28;20059;-83
2022/10/16 06:12:51;;;;;;;5.68;2.20;;;13.20;99.90;;;;;;5068979;28;20059;-83
2022/10/16 06:15:17;;;;;;;8.80;3.22;;;13.30;99.90;;;;;;5069109;28;20041;-83
2022/10/16 06:17:42;;;;;;;7.93;3.30;;;13.30;99.90;;;;;;5069589;28;20432;-83
2022/10/16 06:20:08;;;;;;;5.22;1.95;;;13.40;99.90;;;;;;5070443;28;20533;-83
2022/10/16 06:22:34;;;;;;;8.75;2.10;;;13.30;99.90;;;;;;5068503;28;20094;-83
2022/10/16 06:24:59;;;;;;;5.80;2.20;;;13.30;99.90;;;;;;5068897;28;20115;-83
2022/10/16 06:27:25;;;;;;;7.05;2.90;;;13.30;99.90;;;;;;5069237;28;20040;-83
2022/10/16 06:29:50;;;;;;;5.65;2.17;;;13.40;99.90;;;;;;5052492;28;20045;-83
2022/10/16 06:32:16;;;;;;;8.88;2.72;;;13.40;99.90;;;;;;5070561;28;20033;-83
2022/10/16 06:34:41;;;;;;;7.95;2.15;;;13.40;99.90;;;;;;5056182;28;20072;-83
2022/10/16 06:37:07;;;;;;;6.55;2.15;;;13.30;99.90;;;;;;5072842;28;20498;-83
2022/10/16 06:39:32;;;;;;;6.70;2.05;;;13.40;99.90;;;;;;5072548;28;20561;-83
2022/10/16 06:41:58;;;;;;;9.48;2.38;;;13.30;99.90;;;;;;5072112;28;20063;-83
2022/10/16 06:44:24;;;;;;;8.00;3.10;;;13.40;99.90;;;;;;5072010;28;20040;-83
2022/10/16 06:46:49;;;;;;;6.78;3.20;;;13.40;99.90;;;;;;5072895;28;20043;-83
2022/10/16 06:49:21;;;;;;;5.20;2.13;;;13.50;99.90;;;;;;5055752;28;20494;-83
2022/10/16 06:51:46;;;;;;;9.48;2.42;;;13.50;99.90;;;;;;5055721;28;20040;-83
2022/10/16 06:54:12;;;;;;;8.60;2.38;;;13.40;99.90;;;;;;5055902;28;20064;-83
2022/10/16 06:56:37;;;;;;;7.43;2.67;;;13.40;99.90;;;;;;5055304;28;20046;-83
2022/10/16 06:59:03;;;;;;;8.32;3.50;;;13.40;99.90;;;;;;5072227;28;20067;-83
2022/10/16 07:01:29;;;;;;;9.23;3.28;;;13.50;99.90;;;;;;5071885;28;20075;-83
2022/10/16 07:03:55;;;;;;;9.93;2.35;;;13.50;99.90;;;;;;5055041;28;20036;-83
2022/10/16 07:06:23;;;;;;;8.48;2.63;;;13.50;99.90;;;;;;5071996;28;20049;-83
2022/10/16 07:08:49;;;;;;;7.85;3.03;;;13.50;99.90;;;;;;5072106;28;20079;-83
2022/10/16 07:11:20;;;;;;;7.82;2.40;;;13.50;99.90;;;;;;5071593;28;20072;-83
2022/10/16 07:13:47;;;;;;;7.85;2.90;;;13.60;99.90;;;;;;5055360;28;20527;-83
2022/10/16 07:16:18;;;;;;;5.43;2.00;;;13.60;99.90;;;;;;5055452;28;20391;-83
2022/10/16 07:18:45;;;;;;;6.57;2.40;;;13.60;99.90;;;;;;5072028;28;20036;-83
2022/10/16 07:21:13;;;;;;;8.65;3.55;;;13.60;99.90;;;;;;5071669;28;20040;-83
2022/10/16 07:23:40;;;;;;;7.05;2.42;;;13.60;99.90;;;;;;5054924;28;20036;-83
2022/10/16 07:26:06;;;;;;;6.07;2.13;;;13.70;99.90;;;;;;5054948;28;20046;-83
2022/10/16 07:28:32;;;;;;;7.97;2.10;;;13.60;99.90;;;;;;5070504;28;20051;-83
2022/10/16 07:31:02;;;;;;;8.63;3.10;;;13.70;99.90;;;;;;5054695;28;20128;-83
2022/10/16 07:33:28;;;;;;;5.28;1.85;;;13.70;99.90;;;;;;5071751;28;20119;-83
2022/10/16 07:35:54;;;;;;;6.05;1.98;;;13.70;99.90;;;;;;5071519;28;20127;-83
2022/10/16 07:38:20;;;;;;;8.98;3.25;;;13.70;99.90;;;;;;5054210;28;20036;-83
2022/10/16 07:40:46;;;;;;;7.85;2.35;;;13.80;99.90;;;;;;5054135;28;20041;-83
2022/10/16 07:43:14;;;;;;;6.63;2.28;;;13.80;99.90;;;;;;5070565;28;20406;-83
2022/10/16 07:45:48;;;;;;;8.25;2.97;;;13.90;99.90;;;;;;5054325;28;20144;-83
2022/10/16 07:48:14;;;;;;;8.82;3.15;;;14.00;99.90;;;;;;5054912;28;20048;-83
2022/10/16 07:50:39;;;;;;;6.28;1.67;;;14.00;99.90;;;;;;5054489;28;20406;-83
2022/10/16 07:53:05;;;;;;;5.25;1.88;;;14.00;99.90;;;;;;5070911;28;20110;-83
2022/10/16 07:55:31;;;;;;;9.15;2.70;;;14.00;99.90;;;;;;5054375;28;20036;-83
2022/10/16 07:57:57;;;;;;;7.97;2.00;;;14.00;99.90;;;;;;5071221;28;20471;-83
2022/10/16 08:00:22;;;;;;;6.05;1.80;;;14.10;99.90;;;;;;5070805;28;20136;-83
2022/10/16 08:02:48;;;;;;;8.82;2.53;;;14.10;99.90;;;;;;5070312;28;20041;-83
2022/10/16 08:05:13;;;;;;;6.32;1.48;;;14.10;99.90;;;;;;5053984;28;20032;-83
2022/10/16 08:07:39;;;;;;;8.25;2.40;;;14.10;99.90;;;;;;5070718;28;20125;-83
2022/10/16 08:10:05;;;;;;;4.80;1.40;;;14.20;99.90;;;;;;5054634;28;20067;-83
2022/10/16 08:12:30;;;;;;;4.03;1.48;;;14.20;99.90;;;;;;5069470;28;20036;-83
2022/10/16 08:14:56;;;;;;;8.00;1.88;;;14.20;99.90;;;;;;5071326;28;20491;-83
2022/10/16 08:17:21;;;;;;;5.68;2.10;;;14.30;99.90;;;;;;5071284;28;20090;-83
2022/10/16 08:19:47;;;;;;;6.63;2.05;;;14.30;99.90;;;;;;5071027;28;20041;-83
2022/10/16 08:22:16;;;;;;;9.93;1.70;;;14.40;99.90;;;;;;5072056;28;20101;-83
2022/10/16 08:24:41;;;;;;;4.07;1.90;;;14.40;99.90;;;;;;5071164;28;20089;-83
2022/10/16 08:27:08;;;;;;;6.20;2.08;;;14.40;99.90;;;;;;5054381;28;20041;-83
2022/10/16 08:29:34;;;;;;;7.68;2.10;;;14.40;99.90;;;;;;5071164;28;20091;-83
2022/10/16 08:32:00;;;;;;;4.10;1.58;;;14.50;99.90;;;;;;5054141;28;20497;-83
2022/10/16 08:34:25;;;;;;;5.78;2.15;;;14.40;99.90;;;;;;5054261;28;20093;-83
2022/10/16 08:36:54;;;;;;;7.30;2.17;;;14.50;99.90;;;;;;5070976;28;20062;-83
2022/10/16 08:39:19;;;;;;;9.13;2.85;;;14.60;99.90;;;;;;5054662;28;20041;-83
2022/10/16 08:41:51;;;;;;;5.43;1.67;;;14.60;99.90;;;;;;5053759;28;20036;-83
2022/10/16 08:44:29;;;;;;;7.73;1.73;;;14.60;99.90;;;;;;5053484;28;20032;-83
2022/10/16 08:47:17;;;;;;;7.13;2.47;;;14.70;99.90;;;;;;5067791;28;20036;-83
2022/10/16 08:49:55;;;;;;;5.63;1.80;;;14.80;99.90;;;;;;5044240;28;20036;-83
2022/10/16 08:52:21;;;;;;;6.07;1.75;;;14.80;99.90;;;;;;5068789;28;20543;-83
2022/10/16 08:54:50;;;;;;;7.50;2.30;;;14.80;99.90;;;;;;5068180;28;20120;-83
2022/10/16 08:57:24;;;;;;;8.18;2.60;;;14.90;99.90;;;;;;5053203;28;20214;-83
2022/10/16 08:59:49;;;;;;;5.47;1.88;;;15.00;99.90;;;;;;5069902;28;20158;-83
2022/10/16 09:02:42;;;;;;;7.22;2.50;;;15.00;99.90;;;;;;5069789;28;20127;-83
2022/10/16 09:05:45;;;;;;;5.97;1.63;;;15.00;99.90;;;;;;5061775;28;20125;-83
2022/10/16 09:08:28;;;;;;;8.23;2.10;;;15.00;99.90;;;;;;5052711;28;20037;-83
2022/10/16 09:10:54;;;;;;;;;;;15.10;99.90;;;;;;5070161;28;20079;-84
2022/10/16 09:13:51;;;;;;;6.05;1.52;;;15.10;99.90;;;;;;5070106;28;19951;-84
2022/10/16 09:16:25;;;;;;;7.72;2.33;;;15.00;99.90;;;;;;5069624;28;20048;-83
2022/10/16 09:19:15;;;;;;;8.88;2.35;;;15.20;99.90;;;;;;5069212;28;20413;-83
2022/10/16 09:21:45;;;;;;;7.03;2.00;;;15.30;99.90;;;;;;5069429;28;20058;-83
2022/10/16 09:24:15;;;;;;;8.15;2.25;;;15.40;99.90;;;;;;5053192;28;20071;-84
2022/10/16 09:26:41;;;;;;;6.80;2.13;;;15.50;99.90;;;;;;5053047;28;20486;-83
2022/10/16 09:29:12;;;;;;;9.60;2.20;;;15.50;99.90;;;;;;5052973;28;20073;-83
2022/10/16 09:31:37;;;;;;;8.75;1.50;;;15.60;99.90;;;;;;5069452;28;20040;-83
2022/10/16 09:34:06;;;;;;;11.13;2.15;;;15.60;99.90;;;;;;5070004;28;20094;-83
2022/10/16 09:36:40;;;;;;;9.57;2.15;;;15.70;99.90;;;;;;5069544;28;20075;-83
2022/10/16 09:39:08;;;;;;;9.57;2.08;;;15.80;99.90;;;;;;5052712;28;20037;-83
2022/10/16 09:41:37;;;;;;;6.45;1.58;;;15.80;99.90;;;;;;5069164;28;20139;-83
2022/10/16 09:44:06;;;;;;;10.80;2.25;;;15.90;99.90;;;;;;5053122;28;20041;-83
2022/10/16 09:46:35;;;;;;;8.82;1.67;;;16.00;99.90;;;;;;5053318;28;20067;-83
2022/10/16 09:49:04;;;;;;;8.40;1.77;;;16.00;99.90;;;;;;5069423;28;20115;-83
2022/10/16 09:51:35;;;;;;;9.90;2.20;;;16.10;99.90;;;;;;5069230;28;20548;-83
2022/10/16 09:54:13;;;;;;;10.93;2.10;;;16.10;99.90;;;;;;5069387;28;20522;-83
2022/10/16 09:56:39;;;;;;;9.07;2.10;;;16.10;99.90;;;;;;5069467;28;20448;-83
2022/10/16 09:59:19;;;;;;;8.80;2.58;;;16.20;99.90;;;;;;5052697;28;20037;-83
2022/10/16 10:01:50;;;;;;;7.22;1.45;;;16.20;99.90;;;;;;5068983;28;20032;-83
2022/10/16 10:04:17;;;;;;;13.27;2.50;;;16.20;99.90;;;;;;5053074;28;20037;-83
2022/10/16 10:06:51;;;;;;;8.30;1.65;;;16.30;99.90;;;;;;5055304;28;20071;-83
2022/10/16 10:09:30;;;;;;;11.35;2.67;;;16.40;99.90;;;;;;5056552;28;20041;-83
2022/10/16 10:12:04;;;;;;;10.23;2.75;;;16.50;99.90;;;;;;5055620;28;20040;-83
2022/10/16 10:14:46;;;;;;;12.90;2.30;;;16.50;99.90;;;;;;5072722;28;20051;-83
2022/10/16 10:17:18;;;;;;;9.38;2.10;;;16.60;99.90;;;;;;5072811;28;20082;-83
2022/10/16 10:19:54;;;;;;;11.45;2.50;;;16.60;99.90;;;;;;5072713;28;20047;-84
2022/10/16 10:22:45;;;;;;;13.20;2.70;;;16.60;99.90;;;;;;5072110;28;20441;-83
2022/10/16 10:25:11;;;;;;;10.98;2.20;;;16.70;99.90;;;;;;5056281;28;20410;-83
2022/10/16 10:27:51;;;;;;;12.82;2.42;;;16.70;99.90;;;;;;5072536;28;20041;-83
2022/10/16 10:30:41;;;;;;;8.93;2.13;;;16.80;99.90;;;;;;5072866;28;20059;-83
2022/10/16 10:33:12;;;;;;;10.73;2.78;;;16.80;99.90;;;;;;5005575;28;20057;-83
2022/10/16 10:35:49;;;;;;;11.15;2.38;;;16.90;99.90;;;;;;5056021;28;20040;-83
2022/10/16 10:38:37;;;;;;;10.25;2.45;;;16.90;99.90;;;;;;5072407;28;20048;-83
2022/10/16 10:41:39;;;;;;;12.77;2.20;;;17.00;99.90;;;;;;5072230;28;20040;-83
2022/10/16 10:44:37;;;;;;;11.23;2.75;;;17.10;99.90;;;;;;5045039;28;20159;-83
2022/10/16 10:47:17;;;;;;;11.00;2.35;;;17.00;99.90;;;;;;5072783;28;20059;-83
2022/10/16 10:50:16;;;;;;;7.80;1.45;;;16.90;99.90;;;;;;5055677;28;20044;-84
2022/10/16 10:52:51;;;;;;;11.05;2.10;;;16.80;99.90;;;;;;5055407;28;20486;-84
2022/10/16 10:55:23;;;;;;;13.40;2.55;;;16.80;99.90;;;;;;5072532;28;20047;-84
2022/10/16 10:58:11;;;;;;;9.07;1.60;;;17.00;99.90;;;;;;5055601;28;20037;-83
2022/10/16 11:01:00;;;;;;;9.98;2.58;;;17.10;99.90;;;;;;5071712;28;20298;-84
2022/10/16 11:03:54;;;;;;;12.43;2.30;;;17.10;99.90;;;;;;5072368;28;20490;-83
2022/10/16 11:06:45;;;;;;;9.00;2.67;;;17.20;99.90;;;;;;5058951;28;20051;-84
2022/10/16 11:09:27;;;;;;;9.45;2.80;;;17.40;99.90;;;;;;5072331;28;20072;-84
2022/10/16 11:12:01;;;;;;;8.27;1.75;;;17.50;99.90;;;;;;5072083;28;20409;-84
2022/10/16 11:14:33;;;;;;;10.82;2.78;;;17.70;99.90;;;;;;5055453;28;20051;-84
2022/10/16 11:17:08;;;;;;;11.43;2.15;;;17.70;99.90;;;;;;5055089;28;20044;-84
2022/10/16 11:19:36;;;;;;;12.18;2.30;;;17.80;99.90;;;;;;5054413;28;20440;-84
2022/10/16 11:22:12;;;;;;;11.95;2.63;;;17.90;99.90;;;;;;5054676;28;20562;-83
2022/10/16 11:24:51;;;;;;;11.88;2.33;;;17.90;99.90;;;;;;5072382;28;20418;-84
2022/10/16 11:27:21;;;;;;;10.82;2.30;;;17.80;99.90;;;;;;5055174;28;20462;-84
2022/10/16 11:29:55;;;;;;;12.15;2.53;;;17.70;99.90;;;;;;5071930;28;20059;-84
2022/10/16 11:32:31;;;;;;;10.10;2.58;;;17.70;99.90;;;;;;5071239;28;20040;-84
2022/10/16 11:35:04;;;;;;;14.57;2.85;;;17.50;99.90;;;;;;5072007;28;20078;-84
2022/10/16 11:37:37;;;;;;;12.80;3.00;;;17.40;99.90;;;;;;5071311;28;20086;-84
2022/10/16 11:40:24;;;;;;;12.73;3.13;;;17.40;99.90;;;;;;5070949;28;20041;-83
2022/10/16 11:43:14;;;;;;;10.52;2.42;;;17.30;99.90;;;;;;5071535;28;20036;-84
2022/10/16 11:45:49;;;;;;;10.27;2.35;;;17.40;99.90;;;;;;5071476;28;20452;-83
2022/10/16 11:48:22;;;;;;;12.90;2.70;;;17.50;99.90;;;;;;5071668;28;20036;-84
2022/10/16 11:51:00;;;;;;;12.43;2.45;;;17.50;99.90;;;;;;5071431;28;20059;-84
2022/10/16 11:53:53;;;;;;;12.00;2.35;;;17.60;99.90;;;;;;5055010;28;20064;-84
2022/10/16 11:56:20;;;;;;;11.18;2.83;;;17.70;99.90;;;;;;5054810;28;20044;-83
2022/10/16 11:59:18;;;;;;;12.68;2.63;;;17.80;99.90;;;;;;5054035;28;20831;-83
2022/10/16 12:02:06;;;;;;;9.98;2.22;;;17.80;99.90;;;;;;5042806;28;20096;-83
2022/10/16 12:04:56;;;;;;;9.98;2.20;;;18.00;99.90;;;;;;5070583;28;20039;-84
2022/10/16 12:07:32;;;;;;;10.80;2.30;;;18.20;99.90;;;;;;5068555;28;20037;-84
2022/10/16 12:10:09;;;;;;;10.43;2.20;;;18.30;99.90;;;;;;5071442;28;20505;-84
2022/10/16 12:12:34;;;;;;;13.65;2.80;;;18.40;99.90;;;;;;5071379;28;20044;-84
2022/10/16 12:15:22;;;;;;;9.80;2.20;;;18.50;99.90;;;;;;5071679;28;20426;-84
2022/10/16 12:17:48;;;;;;;12.52;2.20;;;18.60;98.70;;;;;;5054147;28;20045;-83
2022/10/16 12:20:17;;;;;;;11.65;2.70;;;18.60;97.70;;;;;;5054715;28;20363;-84
2022/10/16 12:23:02;;;;;;;9.55;2.30;;;18.50;97.60;;;;;;5070900;28;20043;-84
2022/10/16 12:25:31;;;;;;;11.40;2.38;;;18.50;97.30;;;;;;5071361;28;20116;-84
2022/10/16 12:28:00;;;;;;;12.82;2.50;;;18.60;97.20;;;;;;5071085;28;20116;-83
2022/10/16 12:30:28;;;;;;;12.93;2.58;;;18.60;97.80;;;;;;5070165;28;20037;-84
2022/10/16 12:32:56;;;;;;;10.02;2.30;;;18.70;99.60;;;;;;5054465;28;20059;-84
2022/10/16 12:35:26;;;;;;;11.90;2.50;;;18.80;98.40;;;;;;5071253;28;20044;-84
2022/10/16 12:37:52;;;;;;;9.02;2.10;;;18.90;96.20;;;;;;5054284;28;20163;-84
2022/10/16 12:40:26;;;;;;;9.32;2.08;;;19.10;94.10;;;;;;5054343;28;20409;-84
2022/10/16 12:42:52;;;;;;;9.55;2.20;;;19.20;93.30;;;;;;5054089;28;20039;-84
2022/10/16 12:45:34;;;;;;;10.85;2.30;;;19.40;91.50;;;;;;5070825;28;20036;-84
2022/10/16 12:48:01;;;;;;;12.93;2.47;;;19.60;88.10;;;;;;5070846;28;20117;-84
2022/10/16 12:50:38;;;;;;;13.20;2.53;;;19.90;86.90;;;;;;5070992;28;20052;-84
2022/10/16 12:53:18;;;;;;;12.25;2.65;;;20.70;84.10;;;;;;5070310;28;20047;-84
2022/10/16 12:56:02;;;;;;;10.70;2.33;;;21.60;77.00;;;;;;5070683;28;20033;-84
2022/10/16 12:58:52;;;;;;;9.57;2.42;;;22.20;69.40;;;;;;5070545;28;20063;-84
2022/10/16 13:01:34;;;;;;;8.40;1.95;;;22.70;70.30;;;;;;5053372;28;20083;-84
2022/10/16 13:04:22;;;;;;;9.65;2.03;;;23.10;65.50;;;;;;5067670;28;20036;-84